Dresden, Kansas
Current Conditions -  °F | °C
As of 3:53 PM on Saturday 20 Dec 2014 (Local Time) from KHLC Reporting Station
Clear Clear  
Wind Chill: 54°   Ceiling: Unl
Heat Index: 54°   Visibility: 10mi
Dew Point: 32°   Wind: 3mph
Humidity: 43%   Direction: 170°S
Pressure: 29.98"   Gusts: NA
Location:  39.62°N, 100.42°W
Report Text: KHLC 202153Z AUTO 17003KT 10SM CLR 12/00 A2998 RMK AO2 SLP160 T01220000
Loading
Personal Weather Stations






























Interactive Weather Map New forecast layout! Learn more

10-Day Weather Forecast

Advertisements
Track Severe Weather on mobile